Time;durP1;ratioP1;P1;durP2;ratioP2;P2;SDS_P1;SDS_P2;PMS_P1;PMS_P2;Temp;Humidity;BMP_temperature;BMP_pressure;BME280_temperature;BME280_humidity;BME280_pressure;Samples;Min_cycle;Max_cycle;Signal;HPM_P1;HPM_P2
2022/09/06 00:02:03;;;;;;;9.35;4.30;;;;;;;;;;5013247;28;20492;-72
2022/09/06 00:04:29;;;;;;;7.32;4.28;;;;;;;;;;5032272;28;20048;-72
2022/09/06 00:06:55;;;;;;;8.32;4.70;;;;;;;;;;4996358;28;20042;-72
2022/09/06 00:09:21;;;;;;;7.43;4.03;;;;;;;;;;5015806;28;20116;-73
2022/09/06 00:11:47;;;;;;;10.57;4.60;;;;;;;;;;5019912;28;20038;-72
2022/09/06 00:14:13;;;;;;;7.55;4.03;;;;;;;;;;5034505;28;20049;-73
2022/09/06 00:16:39;;;;;;;8.05;4.60;;;;;;;;;;5035921;28;20045;-73
2022/09/06 00:19:05;;;;;;;7.97;4.57;;;;;;;;;;5035740;28;20392;-73
2022/09/06 00:21:31;;;;;;;7.70;4.20;;;;;;;;;;5017666;28;20084;-73
2022/09/06 00:23:57;;;;;;;9.68;4.25;;;;;;;;;;5014139;28;20046;-73
2022/09/06 00:26:25;;;;;;;7.00;4.28;;;;;;;;;;5014583;28;20122;-73
2022/09/06 00:28:51;;;;;;;8.13;4.18;;;;;;;;;;5014467;28;20058;-73
2022/09/06 00:31:19;;;;;;;9.95;4.15;;;;;;;;;;5014061;28;20042;-73
2022/09/06 00:33:45;;;;;;;10.07;4.30;;;;;;;;;;5013069;28;20121;-73
2022/09/06 00:36:12;;;;;;;9.30;4.40;;;;;;;;;;5014372;28;20045;-73
2022/09/06 00:38:39;;;;;;;9.43;4.50;;;;;;;;;;5008620;28;20637;-72
2022/09/06 00:41:06;;;;;;;7.75;4.30;;;;;;;;;;5011715;28;20046;-73
2022/09/06 00:43:32;;;;;;;8.85;4.30;;;;;;;;;;4995081;28;20066;-73
2022/09/06 00:45:59;;;;;;;8.38;4.70;;;;;;;;;;5013710;28;20053;-73
2022/09/06 00:48:25;;;;;;;8.40;4.55;;;;;;;;;;4979084;28;20049;-73
2022/09/06 00:50:53;;;;;;;8.55;4.68;;;;;;;;;;5014153;28;20511;-73
2022/09/06 00:53:19;;;;;;;7.47;4.53;;;;;;;;;;4999700;28;20048;-72
2022/09/06 00:55:45;;;;;;;7.35;4.82;;;;;;;;;;5015554;28;20042;-72
2022/09/06 00:58:11;;;;;;;8.45;5.07;;;;;;;;;;5014300;28;20049;-72
2022/09/06 01:00:37;;;;;;;11.93;4.97;;;;;;;;;;5013730;28;20077;-73
2022/09/06 01:03:04;;;;;;;8.68;4.75;;;;;;;;;;5014391;28;20132;-73
2022/09/06 01:05:42;;;;;;;9.73;4.80;;;;;;;;;;5013975;28;20084;-71
2022/09/06 01:08:11;;;;;;;8.48;4.68;;;;;;;;;;5012807;28;20041;-72
2022/09/06 01:10:43;;;;;;;7.45;4.93;;;;;;;;;;5013361;28;20096;-72
2022/09/06 01:13:09;;;;;;;7.97;5.05;;;;;;;;;;4994107;28;20061;-73
2022/09/06 01:15:35;;;;;;;9.85;4.97;;;;;;;;;;4997821;28;20073;-73
2022/09/06 01:18:20;;;;;;;8.45;4.97;;;;;;;;;;5013433;28;20053;-74
2022/09/06 01:20:49;;;;;;;7.88;5.05;;;;;;;;;;5013894;28;20042;-73
2022/09/06 01:23:28;;;;;;;7.38;4.70;;;;;;;;;;5020375;28;20037;-72
2022/09/06 01:26:01;;;;;;;6.65;4.55;;;;;;;;;;5012872;28;20412;-73
2022/09/06 01:28:39;;;;;;;8.73;5.18;;;;;;;;;;4995372;28;20058;-72
2022/09/06 01:31:23;;;;;;;6.88;4.68;;;;;;;;;;5012098;28;20058;-72
2022/09/06 01:33:59;;;;;;;11.15;4.78;;;;;;;;;;5027071;28;20394;-72
2022/09/06 01:36:32;;;;;;;8.73;4.90;;;;;;;;;;5012332;28;20046;-73
2022/09/06 01:38:58;;;;;;;7.95;4.90;;;;;;;;;;5010537;28;20038;-72
2022/09/06 01:41:24;;;;;;;9.32;4.93;;;;;;;;;;5010562;28;20044;-72
2022/09/06 01:43:51;;;;;;;8.25;5.07;;;;;;;;;;5012450;28;20496;-73
2022/09/06 01:46:24;;;;;;;8.95;4.97;;;;;;;;;;5012770;28;20133;-72
2022/09/06 01:48:50;;;;;;;10.70;5.30;;;;;;;;;;5010687;28;20049;-73
2022/09/06 01:51:31;;;;;;;9.00;5.30;;;;;;;;;;4990285;28;20043;-73
2022/09/06 01:54:02;;;;;;;8.43;5.03;;;;;;;;;;5013975;28;20041;-72
2022/09/06 01:56:37;;;;;;;10.35;5.38;;;;;;;;;;4996310;28;20054;-73
2022/09/06 01:59:15;;;;;;;8.73;5.18;;;;;;;;;;5005252;28;20054;-73
2022/09/06 02:01:55;;;;;;;8.02;5.20;;;;;;;;;;5001265;28;20100;-72
2022/09/06 02:04:33;;;;;;;9.63;5.15;;;;;;;;;;5030439;28;20042;-73
2022/09/06 02:07:01;;;;;;;9.18;4.70;;;;;;;;;;4998325;28;20045;-73
2022/09/06 02:09:30;;;;;;;10.05;5.05;;;;;;;;;;4994547;28;20042;-73
2022/09/06 02:11:58;;;;;;;8.90;5.55;;;;;;;;;;5012806;28;20125;-73
2022/09/06 02:14:27;;;;;;;10.00;5.43;;;;;;;;;;5012715;28;20403;-73
2022/09/06 02:16:54;;;;;;;8.85;5.32;;;;;;;;;;4994219;28;21569;-73
2022/09/06 02:19:24;;;;;;;9.38;5.13;;;;;;;;;;4996310;28;20408;-73
2022/09/06 02:21:51;;;;;;;8.05;5.20;;;;;;;;;;5013165;28;20053;-73
2022/09/06 02:24:20;;;;;;;7.85;5.40;;;;;;;;;;5018289;28;20042;-73
2022/09/06 02:26:47;;;;;;;9.05;5.38;;;;;;;;;;5011434;28;20431;-73
2022/09/06 02:29:13;;;;;;;7.03;5.50;;;;;;;;;;5024190;28;20100;-73
2022/09/06 02:31:52;;;;;;;9.05;5.50;;;;;;;;;;5013134;28;20057;-73
2022/09/06 02:34:19;;;;;;;10.35;5.32;;;;;;;;;;5018750;28;20492;-73
2022/09/06 02:36:45;;;;;;;9.20;5.57;;;;;;;;;;5012266;28;20396;-73
2022/09/06 02:39:13;;;;;;;7.40;5.35;;;;;;;;;;5003383;28;20582;-72
2022/09/06 02:41:39;;;;;;;10.00;5.50;;;;;;;;;;4997169;28;20088;-73
2022/09/06 02:44:06;;;;;;;8.18;5.00;;;;;;;;;;5023984;28;20046;-73
2022/09/06 02:46:32;;;;;;;10.52;5.45;;;;;;;;;;5013564;28;20076;-73
2022/09/06 02:48:58;;;;;;;8.05;5.57;;;;;;;;;;5009419;28;20504;-73
2022/09/06 02:51:24;;;;;;;10.23;5.55;;;;;;;;;;4981513;28;20078;-73
2022/09/06 02:53:50;;;;;;;7.70;5.55;;;;;;;;;;5020839;28;20073;-73
2022/09/06 02:56:16;;;;;;;8.52;5.60;;;;;;;;;;5008939;28;20121;-73
2022/09/06 02:58:45;;;;;;;8.98;5.22;;;;;;;;;;5008961;28;20411;-73
2022/09/06 03:01:11;;;;;;;8.95;5.30;;;;;;;;;;5012844;28;20512;-73
2022/09/06 03:03:37;;;;;;;7.57;5.47;;;;;;;;;;5008762;28;20112;-73
2022/09/06 03:06:03;;;;;;;7.97;5.60;;;;;;;;;;5027397;28;20121;-73
2022/09/06 03:08:32;;;;;;;10.55;5.25;;;;;;;;;;4992922;28;20053;-73
2022/09/06 03:10:59;;;;;;;7.68;5.43;;;;;;;;;;5009977;28;20520;-73
2022/09/06 03:13:25;;;;;;;9.35;5.65;;;;;;;;;;5008174;28;20492;-73
2022/09/06 03:15:51;;;;;;;9.43;6.00;;;;;;;;;;5012076;28;20125;-73
2022/09/06 03:18:18;;;;;;;7.68;5.70;;;;;;;;;;5009421;28;20057;-73
2022/09/06 03:20:44;;;;;;;10.98;5.85;;;;;;;;;;5012015;28;20038;-73
2022/09/06 03:23:10;;;;;;;8.80;6.15;;;;;;;;;;4991978;28;20127;-73
2022/09/06 03:25:36;;;;;;;10.10;5.90;;;;;;;;;;5023415;28;20380;-73
2022/09/06 03:28:03;;;;;;;7.57;5.70;;;;;;;;;;5010011;28;20058;-73
2022/09/06 03:30:29;;;;;;;11.07;6.18;;;;;;;;;;5012117;28;20124;-73
2022/09/06 03:32:55;;;;;;;9.40;5.85;;;;;;;;;;5015480;28;20045;-73
2022/09/06 03:35:21;;;;;;;8.00;6.20;;;;;;;;;;5003095;28;20045;-74
2022/09/06 03:37:47;;;;;;;12.98;7.18;;;;;;;;;;4995086;28;20050;-73
2022/09/06 03:40:13;;;;;;;10.10;6.30;;;;;;;;;;5008759;28;20127;-73
2022/09/06 03:42:39;;;;;;;10.70;6.90;;;;;;;;;;5000646;28;20049;-73
2022/09/06 03:45:06;;;;;;;9.45;6.93;;;;;;;;;;5015405;28;20046;-73
2022/09/06 03:47:32;;;;;;;10.07;6.53;;;;;;;;;;5013558;28;20042;-73
2022/09/06 03:49:58;;;;;;;8.10;7.03;;;;;;;;;;5013699;28;20462;-73
2022/09/06 03:52:24;;;;;;;10.15;6.00;;;;;;;;;;5013935;28;20130;-73
2022/09/06 03:54:50;;;;;;;7.85;5.95;;;;;;;;;;4988463;28;20050;-73
2022/09/06 03:57:16;;;;;;;9.15;6.88;;;;;;;;;;4997370;28;20124;-73
2022/09/06 03:59:42;;;;;;;8.20;6.78;;;;;;;;;;5012688;28;20184;-73
2022/09/06 04:02:08;;;;;;;9.15;6.93;;;;;;;;;;5002893;28;20042;-74
2022/09/06 04:04:34;;;;;;;9.43;6.70;;;;;;;;;;5013788;28;20052;-73
2022/09/06 04:07:00;;;;;;;11.15;7.20;;;;;;;;;;5012387;28;20050;-73
2022/09/06 04:09:26;;;;;;;8.80;6.60;;;;;;;;;;5014909;28;20046;-73
2022/09/06 04:11:52;;;;;;;10.07;6.53;;;;;;;;;;5014980;28;20092;-73
2022/09/06 04:14:18;;;;;;;10.05;6.60;;;;;;;;;;5031136;28;20499;-72
2022/09/06 04:16:44;;;;;;;10.88;6.93;;;;;;;;;;5035288;28;20053;-73
2022/09/06 04:19:10;;;;;;;9.52;6.60;;;;;;;;;;5016093;28;20377;-73
2022/09/06 04:21:37;;;;;;;10.43;6.43;;;;;;;;;;5014674;28;20480;-73
2022/09/06 04:24:03;;;;;;;10.05;6.60;;;;;;;;;;5016441;28;20466;-73
2022/09/06 04:26:30;;;;;;;8.90;6.60;;;;;;;;;;5018133;28;20041;-72
2022/09/06 04:28:56;;;;;;;12.20;7.13;;;;;;;;;;5015536;28;20421;-72
2022/09/06 04:31:22;;;;;;;9.13;6.63;;;;;;;;;;5019135;28;20128;-72
2022/09/06 04:33:48;;;;;;;12.00;6.95;;;;;;;;;;5014947;28;20052;-73
2022/09/06 04:36:14;;;;;;;8.38;6.90;;;;;;;;;;5012550;28;20042;-72
2022/09/06 04:38:41;;;;;;;12.23;7.05;;;;;;;;;;5015256;28;20100;-73
2022/09/06 04:41:08;;;;;;;9.35;7.03;;;;;;;;;;5027703;28;20042;-73
2022/09/06 04:43:34;;;;;;;11.07;7.15;;;;;;;;;;5012853;28;20034;-72
2022/09/06 04:46:07;;;;;;;8.55;7.00;;;;;;;;;;5012716;28;20395;-73
2022/09/06 04:48:33;;;;;;;12.18;7.43;;;;;;;;;;5006133;28;20081;-73
2022/09/06 04:50:59;;;;;;;12.32;7.15;;;;;;;;;;5006227;28;20133;-73
2022/09/06 04:53:25;;;;;;;9.57;7.47;;;;;;;;;;5012924;28;20508;-73
2022/09/06 04:55:51;;;;;;;8.15;6.72;;;;;;;;;;5011635;28;20046;-73
2022/09/06 04:58:18;;;;;;;10.48;7.50;;;;;;;;;;5013459;28;20504;-73
2022/09/06 05:00:44;;;;;;;13.50;7.10;;;;;;;;;;4977517;28;20069;-73
2022/09/06 05:03:10;;;;;;;10.77;7.55;;;;;;;;;;4997749;28;20070;-73
2022/09/06 05:05:36;;;;;;;10.32;7.60;;;;;;;;;;4996088;28;20045;-73
2022/09/06 05:08:02;;;;;;;12.60;7.97;;;;;;;;;;5011093;28;20488;-73
2022/09/06 05:10:28;;;;;;;10.27;7.30;;;;;;;;;;5013721;28;20112;-73
2022/09/06 05:12:54;;;;;;;11.98;7.88;;;;;;;;;;5012068;28;20082;-73
2022/09/06 05:15:21;;;;;;;11.02;7.65;;;;;;;;;;5010071;28;20527;-73
2022/09/06 05:17:47;;;;;;;14.25;8.00;;;;;;;;;;5012360;28;20069;-73
2022/09/06 05:20:14;;;;;;;9.88;7.80;;;;;;;;;;5026737;28;20381;-73
2022/09/06 05:22:40;;;;;;;12.10;7.57;;;;;;;;;;5014452;28;20148;-73
2022/09/06 05:25:07;;;;;;;9.75;8.75;;;;;;;;;;4995893;28;20050;-73
2022/09/06 05:27:33;;;;;;;11.18;8.57;;;;;;;;;;5016659;28;20050;-73
2022/09/06 05:29:59;;;;;;;9.68;8.23;;;;;;;;;;5001873;28;20492;-73
2022/09/06 05:32:25;;;;;;;13.23;9.20;;;;;;;;;;5012623;28;20053;-73
2022/09/06 05:34:53;;;;;;;14.85;9.23;;;;;;;;;;5012087;28;20049;-73
2022/09/06 05:37:19;;;;;;;13.00;8.88;;;;;;;;;;4993177;28;20072;-73
2022/09/06 05:39:45;;;;;;;12.40;8.82;;;;;;;;;;5012833;28;20057;-72
2022/09/06 05:42:11;;;;;;;13.45;10.20;;;;;;;;;;5011622;28;20115;-72
2022/09/06 05:44:37;;;;;;;12.63;9.68;;;;;;;;;;5012400;28;20511;-73
2022/09/06 05:47:03;;;;;;;16.40;10.13;;;;;;;;;;5013802;28;20989;-73
2022/09/06 05:49:30;;;;;;;15.80;10.95;;;;;;;;;;4998179;28;20100;-72
2022/09/06 05:51:57;;;;;;;16.50;11.13;;;;;;;;;;5014481;28;20046;-72
2022/09/06 05:54:23;;;;;;;13.40;10.43;;;;;;;;;;5011595;28;20050;-72
2022/09/06 05:56:49;;;;;;;14.20;10.75;;;;;;;;;;5011723;28;20065;-72
2022/09/06 05:59:15;;;;;;;15.35;10.45;;;;;;;;;;5010297;28;20049;-72
2022/09/06 06:01:48;;;;;;;17.40;10.40;;;;;;;;;;5008517;28;20077;-72
2022/09/06 06:04:15;;;;;;;19.63;11.02;;;;;;;;;;4985120;28;20050;-72
2022/09/06 06:06:41;;;;;;;17.13;10.88;;;;;;;;;;5004266;28;20049;-73
2022/09/06 06:09:07;;;;;;;19.15;11.60;;;;;;;;;;5013843;28;20381;-73
2022/09/06 06:11:33;;;;;;;16.08;11.43;;;;;;;;;;5010640;28;20488;-74
2022/09/06 06:13:59;;;;;;;18.90;11.23;;;;;;;;;;5033060;28;20129;-73
2022/09/06 06:16:25;;;;;;;24.13;11.02;;;;;;;;;;5028747;28;20053;-74
2022/09/06 06:18:51;;;;;;;16.30;11.00;;;;;;;;;;5011158;28;20125;-74
2022/09/06 06:21:19;;;;;;;18.20;10.93;;;;;;;;;;5012494;28;20128;-74
2022/09/06 06:23:46;;;;;;;14.88;11.05;;;;;;;;;;5011006;28;20061;-74
2022/09/06 06:26:12;;;;;;;14.10;11.43;;;;;;;;;;5019865;28;20423;-73
2022/09/06 06:28:39;;;;;;;13.88;10.88;;;;;;;;;;5016036;28;20058;-74
2022/09/06 06:31:06;;;;;;;17.40;10.77;;;;;;;;;;5012121;28;20057;-73
2022/09/06 06:33:32;;;;;;;18.20;11.73;;;;;;;;;;5011879;28;20038;-73
2022/09/06 06:35:59;;;;;;;16.60;12.45;;;;;;;;;;5010933;28;20046;-73
2022/09/06 06:38:36;;;;;;;18.75;12.98;;;;;;;;;;5012862;28;20161;-73
2022/09/06 06:41:02;;;;;;;15.52;12.35;;;;;;;;;;5011430;28;20046;-73
2022/09/06 06:43:34;;;;;;;14.25;12.80;;;;;;;;;;5023071;28;20047;-73
2022/09/06 06:46:00;;;;;;;16.67;13.88;;;;;;;;;;5030310;28;20081;-73
2022/09/06 06:48:27;;;;;;;14.77;13.35;;;;;;;;;;4997980;28;20045;-73
2022/09/06 06:50:52;;;;;;;15.30;13.40;;;;;;;;;;5007574;28;20071;-73
2022/09/06 06:53:18;;;;;;;15.27;13.63;;;;;;;;;;5011403;28;20474;-74
2022/09/06 06:55:47;;;;;;;15.60;12.73;;;;;;;;;;5012735;28;20041;-74
2022/09/06 06:58:13;;;;;;;14.75;13.15;;;;;;;;;;4991149;28;20081;-73
2022/09/06 07:00:40;;;;;;;19.05;13.95;;;;;;;;;;5025699;28;20054;-73
2022/09/06 07:03:06;;;;;;;15.95;13.98;;;;;;;;;;5006342;28;20050;-73
2022/09/06 07:05:32;;;;;;;15.45;13.60;;;;;;;;;;5009683;28;20128;-74
2022/09/06 07:07:59;;;;;;;15.88;14.45;;;;;;;;;;5000260;28;20652;-73
2022/09/06 07:10:25;;;;;;;15.80;13.95;;;;;;;;;;5032015;28;20049;-74
2022/09/06 07:12:51;;;;;;;15.60;14.10;;;;;;;;;;5013572;28;20053;-73
2022/09/06 07:15:18;;;;;;;15.23;13.75;;;;;;;;;;5008345;28;20034;-74
2022/09/06 07:17:44;;;;;;;15.95;13.70;;;;;;;;;;5009628;28;20046;-74
2022/09/06 07:20:10;;;;;;;15.43;13.32;;;;;;;;;;5032045;28;20412;-74
2022/09/06 07:22:37;;;;;;;16.52;13.32;;;;;;;;;;5018139;28;20038;-73
2022/09/06 07:25:04;;;;;;;15.82;14.20;;;;;;;;;;4994699;28;20052;-74
2022/09/06 07:27:30;;;;;;;17.33;13.50;;;;;;;;;;4993672;28;20057;-74
2022/09/06 07:29:56;;;;;;;15.68;14.02;;;;;;;;;;5029464;28;20049;-74
2022/09/06 07:32:22;;;;;;;14.68;13.27;;;;;;;;;;5022519;28;20401;-73
2022/09/06 07:34:48;;;;;;;15.05;13.50;;;;;;;;;;4994577;28;20050;-73
2022/09/06 07:37:14;;;;;;;15.60;13.93;;;;;;;;;;5010896;28;20042;-73
2022/09/06 07:39:40;;;;;;;17.38;15.57;;;;;;;;;;5010088;28;20066;-73
2022/09/06 07:42:06;;;;;;;19.80;14.15;;;;;;;;;;5009972;28;20480;-74
2022/09/06 07:44:32;;;;;;;14.80;13.13;;;;;;;;;;5013077;28;20073;-74
2022/09/06 07:47:01;;;;;;;15.70;13.60;;;;;;;;;;5007477;28;20058;-74
2022/09/06 07:49:28;;;;;;;18.80;14.18;;;;;;;;;;5017175;28;20054;-72
2022/09/06 07:51:54;;;;;;;16.85;14.38;;;;;;;;;;5011686;28;20056;-72
2022/09/06 07:54:21;;;;;;;16.63;14.80;;;;;;;;;;5011801;28;20045;-73
2022/09/06 07:56:47;;;;;;;19.80;13.32;;;;;;;;;;5012665;28;20462;-73
2022/09/06 07:59:13;;;;;;;15.55;13.63;;;;;;;;;;5004693;28;20457;-73
2022/09/06 08:01:40;;;;;;;15.77;14.18;;;;;;;;;;5014975;28;20117;-73
2022/09/06 08:04:07;;;;;;;17.67;14.65;;;;;;;;;;5010129;28;20117;-73
2022/09/06 08:06:35;;;;;;;17.40;14.13;;;;;;;;;;5011630;28;20527;-74
2022/09/06 08:09:01;;;;;;;16.83;14.32;;;;;;;;;;4992952;28;20145;-74
2022/09/06 08:11:29;;;;;;;18.65;14.10;;;;;;;;;;5011722;28;20119;-73
2022/09/06 08:13:56;;;;;;;19.10;14.80;;;;;;;;;;5011166;28;20046;-73
2022/09/06 08:16:23;;;;;;;14.27;12.88;;;;;;;;;;5009614;28;20046;-73
2022/09/06 08:18:53;;;;;;;16.42;13.27;;;;;;;;;;5011352;28;20466;-73
2022/09/06 08:21:19;;;;;;;14.02;12.63;;;;;;;;;;5031357;28;20049;-73
2022/09/06 08:23:47;;;;;;;15.55;12.55;;;;;;;;;;5031436;28;20041;-74
2022/09/06 08:26:14;;;;;;;17.52;12.60;;;;;;;;;;5010855;28;20125;-74
2022/09/06 08:28:40;;;;;;;13.13;11.68;;;;;;;;;;4989520;28;20137;-73
2022/09/06 08:31:07;;;;;;;20.10;12.32;;;;;;;;;;5002725;28;20064;-74
2022/09/06 08:33:33;;;;;;;15.02;12.30;;;;;;;;;;5013390;28;20135;-73
2022/09/06 08:35:59;;;;;;;17.13;13.15;;;;;;;;;;5018604;28;20145;-73
2022/09/06 08:38:26;;;;;;;14.38;11.60;;;;;;;;;;4999406;28;20045;-74
2022/09/06 08:40:54;;;;;;;14.30;11.85;;;;;;;;;;5013777;28;20537;-73
2022/09/06 08:43:22;;;;;;;15.90;11.95;;;;;;;;;;4997189;28;20058;-74
2022/09/06 08:45:49;;;;;;;12.65;11.35;;;;;;;;;;5014748;28;20041;-74
2022/09/06 08:48:15;;;;;;;12.13;10.25;;;;;;;;;;5014255;28;20060;-74
2022/09/06 08:50:45;;;;;;;12.20;10.80;;;;;;;;;;4996536;28;20034;-74
2022/09/06 08:53:14;;;;;;;15.10;11.23;;;;;;;;;;5013881;28;20066;-73
2022/09/06 08:56:06;;;;;;;12.80;11.45;;;;;;;;;;5013692;28;20046;-73
2022/09/06 08:58:35;;;;;;;16.15;10.80;;;;;;;;;;4990780;28;20151;-74
2022/09/06 09:01:05;;;;;;;12.73;10.40;;;;;;;;;;5014379;28;20140;-73
2022/09/06 09:03:33;;;;;;;12.57;10.38;;;;;;;;;;5012632;28;20054;-73
2022/09/06 09:06:02;;;;;;;13.55;11.02;;;;;;;;;;5013680;28;20042;-74
2022/09/06 09:08:49;;;;;;;12.30;10.43;;;;;;;;;;4996535;28;20038;-74
2022/09/06 09:11:20;;;;;;;11.77;10.60;;;;;;;;;;5013932;28;20050;-73
2022/09/06 09:13:46;;;;;;;13.60;10.27;;;;;;;;;;5011704;28;20046;-74
2022/09/06 09:16:13;;;;;;;13.82;10.75;;;;;;;;;;5011318;28;20033;-73
2022/09/06 09:18:41;;;;;;;16.48;10.65;;;;;;;;;;5013507;28;20054;-73
2022/09/06 09:21:08;;;;;;;14.10;11.00;;;;;;;;;;4998809;28;20054;-72
2022/09/06 09:23:34;;;;;;;11.48;10.32;;;;;;;;;;5013560;28;20049;-73
2022/09/06 09:26:02;;;;;;;13.13;11.00;;;;;;;;;;4996318;28;20135;-73
2022/09/06 09:28:28;;;;;;;13.57;10.18;;;;;;;;;;5012794;28;20089;-73
2022/09/06 09:30:55;;;;;;;13.57;9.68;;;;;;;;;;5013801;28;20052;-72
2022/09/06 09:33:21;;;;;;;15.57;10.82;;;;;;;;;;5013739;28;20042;-73
2022/09/06 09:35:48;;;;;;;13.77;9.93;;;;;;;;;;5014014;28;20046;-73
2022/09/06 09:38:19;;;;;;;13.25;9.45;;;;;;;;;;5013317;28;20042;-73
2022/09/06 09:40:48;;;;;;;11.65;9.38;;;;;;;;;;5012784;28;20530;-73
2022/09/06 09:43:24;;;;;;;11.68;9.75;;;;;;;;;;5013872;28;20046;-72
2022/09/06 09:46:09;;;;;;;14.65;9.85;;;;;;;;;;5013415;28;20072;-72
2022/09/06 09:48:35;;;;;;;13.18;10.32;;;;;;;;;;5029128;28;20496;-73
2022/09/06 09:51:30;;;;;;;14.02;9.65;;;;;;;;;;4994457;28;20050;-72
2022/09/06 09:54:06;;;;;;;14.68;8.35;;;;;;;;;;4992798;28;20512;-72
2022/09/06 09:56:35;;;;;;;11.57;9.25;;;;;;;;;;5013238;28;20495;-72
2022/09/06 09:59:02;;;;;;;16.00;8.10;;;;;;;;;;4992552;28;20038;-73
2022/09/06 10:01:28;;;;;;;11.20;8.85;;;;;;;;;;4994096;28;20121;-73
2022/09/06 10:04:06;;;;;;;11.23;9.20;;;;;;;;;;5006599;28;20128;-72
2022/09/06 10:06:32;;;;;;;11.63;8.98;;;;;;;;;;5012016;28;20038;-73
2022/09/06 10:08:58;;;;;;;10.35;8.13;;;;;;;;;;5016717;28;20050;-73
2022/09/06 10:11:47;;;;;;;10.98;8.10;;;;;;;;;;5012041;28;20111;-73
2022/09/06 10:14:20;;;;;;;10.60;8.98;;;;;;;;;;5015700;28;20050;-73
2022/09/06 10:16:46;;;;;;;12.32;7.95;;;;;;;;;;4995599;28;20189;-72
2022/09/06 10:19:23;;;;;;;11.45;8.55;;;;;;;;;;5012707;28;20052;-72
2022/09/06 10:21:54;;;;;;;10.32;6.97;;;;;;;;;;5013160;28;20393;-75
2022/09/06 10:24:20;;;;;;;;;;;;;;;;;;4995368;28;20049;-76
2022/09/06 10:26:58;;;;;;;12.07;6.68;;;;;;;;;;5015793;28;19921;-76
2022/09/06 10:29:35;;;;;;;11.23;8.57;;;;;;;;;;5012446;28;20062;-76
2022/09/06 10:32:07;;;;;;;12.32;7.80;;;;;;;;;;5009570;28;20173;-74
2022/09/06 10:34:43;;;;;;;10.73;7.55;;;;;;;;;;5012418;28;20104;-71
2022/09/06 10:37:09;;;;;;;12.30;8.25;;;;;;;;;;4989875;28;20124;-71
2022/09/06 10:39:52;;;;;;;11.70;6.65;;;;;;;;;;5012873;28;20053;-72
2022/09/06 10:42:19;;;;;;;10.32;7.55;;;;;;;;;;5011001;28;20345;-71
2022/09/06 10:44:48;;;;;;;11.15;7.55;;;;;;;;;;4992599;28;20085;-72
2022/09/06 10:47:15;;;;;;;9.85;6.90;;;;;;;;;;5007248;28;20096;-71
2022/09/06 10:49:45;;;;;;;10.00;6.13;;;;;;;;;;5019142;28;20046;-72
2022/09/06 10:52:24;;;;;;;11.18;6.60;;;;;;;;;;5008062;28;20141;-71
2022/09/06 10:54:51;;;;;;;8.48;5.93;;;;;;;;;;5004058;28;20054;-78
2022/09/06 10:57:23;;;;;;;10.82;7.70;;;;;;;;;;5010171;28;20054;-79
2022/09/06 11:00:21;;;;;;;9.18;7.07;;;;;;;;;;5010352;28;20057;-78
2022/09/06 11:03:06;;;;;;;10.82;8.45;;;;;;;;;;4959294;28;20053;-78
2022/09/06 11:05:35;;;;;;;11.02;7.05;;;;;;;;;;4993236;28;20038;-78
2022/09/06 11:08:07;;;;;;;8.50;7.60;;;;;;;;;;5009578;28;20060;-78
2022/09/06 11:10:36;;;;;;;8.23;5.80;;;;;;;;;;5011065;28;20045;-72
2022/09/06 11:13:02;;;;;;;10.00;7.03;;;;;;;;;;5008190;28;20053;-76
2022/09/06 11:15:32;;;;;;;8.90;6.38;;;;;;;;;;5011280;28;20042;-77
2022/09/06 11:18:17;;;;;;;7.45;5.38;;;;;;;;;;5012180;28;20050;-71
2022/09/06 11:21:12;;;;;;;7.38;5.72;;;;;;;;;;5010077;28;20049;-74
2022/09/06 11:23:47;;;;;;;8.45;5.10;;;;;;;;;;4947984;28;20055;-72
2022/09/06 11:26:13;;;;;;;6.63;4.28;;;;;;;;;;4951767;29;20051;-75
2022/09/06 11:28:45;;;;;;;16.00;6.72;;;;;;;;;;4937601;28;20087;-74
2022/09/06 11:31:14;;;;;;;8.63;5.72;;;;;;;;;;4939654;28;20529;-75
2022/09/06 11:33:40;;;;;;;9.05;4.85;;;;;;;;;;4947883;28;20065;-76
2022/09/06 11:36:17;;;;;;;6.43;4.40;;;;;;;;;;4934767;28;20063;-76
2022/09/06 11:38:54;;;;;;;9.43;4.63;;;;;;;;;;4937729;28;20138;-78
2022/09/06 11:41:20;;;;;;;5.97;3.70;;;;;;;;;;4951629;28;20054;-77
2022/09/06 11:43:52;;;;;;;6.63;3.42;;;;;;;;;;4959690;28;20049;-78
2022/09/06 11:46:45;;;;;;;6.25;3.67;;;;;;;;;;4937283;29;20055;-78
2022/09/06 11:49:31;;;;;;;9.35;4.13;;;;;;;;;;4949917;28;20071;-79
2022/09/06 11:51:58;;;;;;;9.82;4.53;;;;;;;;;;4949873;28;20594;-76
2022/09/06 11:54:32;;;;;;;7.10;4.10;;;;;;;;;;4950719;29;20055;-77
2022/09/06 11:57:00;;;;;;;8.10;4.45;;;;;;;;;;4955776;28;20043;-75
2022/09/06 11:59:26;;;;;;;7.60;4.10;;;;;;;;;;4957865;28;20050;-72
2022/09/06 12:02:13;;;;;;;6.28;3.78;;;;;;;;;;4983565;28;20050;-77
2022/09/06 12:04:57;;;;;;;7.22;3.42;;;;;;;;;;4992937;28;20112;-72
2022/09/06 12:07:24;;;;;;;7.93;3.70;;;;;;;;;;4993812;28;20048;-71
2022/09/06 12:09:51;;;;;;;8.05;3.60;;;;;;;;;;4992830;28;20050;-72
2022/09/06 12:12:35;;;;;;;9.35;3.83;;;;;;;;;;5001589;28;20112;-71
2022/09/06 12:15:21;;;;;;;7.90;4.20;;;;;;;;;;4993296;28;20042;-71
2022/09/06 12:17:47;;;;;;;8.40;4.05;;;;;;;;;;5005010;28;20050;-71
2022/09/06 12:20:33;;;;;;;5.93;3.50;;;;;;;;;;5014306;28;20080;-72
2022/09/06 12:23:00;;;;;;;8.65;3.75;;;;;;;;;;5018686;28;20041;-71
2022/09/06 12:25:35;;;;;;;6.35;3.80;;;;;;;;;;5018566;28;20061;-72
2022/09/06 12:28:02;;;;;;;6.80;4.13;;;;;;;;;;5014048;28;20504;-72
2022/09/06 12:30:37;;;;;;;9.15;3.92;;;;;;;;;;4999090;28;20054;-72
2022/09/06 12:33:09;;;;;;;7.55;3.75;;;;;;;;;;5013810;28;20095;-72
2022/09/06 12:35:35;;;;;;;7.03;3.90;;;;;;;;;;5014541;28;20046;-72
2022/09/06 12:38:02;;;;;;;6.35;3.58;;;;;;;;;;5012414;28;20416;-71
2022/09/06 12:40:31;;;;;;;8.02;3.78;;;;;;;;;;5013520;28;20056;-72
2022/09/06 12:42:57;;;;;;;5.60;2.90;;;;;;;;;;5012708;28;20054;-71
2022/09/06 12:45:24;;;;;;;5.70;2.60;;;;;;;;;;5014709;28;20165;-71
2022/09/06 12:48:02;;;;;;;7.15;3.10;;;;;;;;;;5014431;28;20073;-71
2022/09/06 12:50:30;;;;;;;6.80;2.60;;;;;;;;;;4996225;28;20502;-72
2022/09/06 12:52:58;;;;;;;7.07;2.45;;;;;;;;;;5012782;28;20096;-71
2022/09/06 12:55:26;;;;;;;8.25;2.75;;;;;;;;;;5015003;28;20065;-71
2022/09/06 12:57:57;;;;;;;7.13;2.60;;;;;;;;;;5012511;28;20045;-71
2022/09/06 13:00:24;;;;;;;5.93;2.65;;;;;;;;;;4995996;28;20488;-72
2022/09/06 13:02:50;;;;;;;4.60;2.47;;;;;;;;;;5011005;28;20054;-72
2022/09/06 13:05:16;;;;;;;4.80;2.45;;;;;;;;;;4989672;28;20053;-72
2022/09/06 13:07:44;;;;;;;5.40;2.80;;;;;;;;;;5003408;28;20515;-72
2022/09/06 13:10:12;;;;;;;6.60;2.78;;;;;;;;;;5009910;28;20038;-72
2022/09/06 13:12:40;;;;;;;9.07;3.53;;;;;;;;;;5014189;28;20045;-71
2022/09/06 13:15:20;;;;;;;6.63;2.92;;;;;;;;;;4978401;28;20057;-72
2022/09/06 13:17:46;;;;;;;6.57;3.13;;;;;;;;;;4993887;28;20049;-72
2022/09/06 13:20:22;;;;;;;5.57;2.88;;;;;;;;;;5009319;28;20307;-72
2022/09/06 13:22:50;;;;;;;7.63;3.60;;;;;;;;;;4995716;28;20503;-72
2022/09/06 13:25:23;;;;;;;8.05;3.50;;;;;;;;;;5012860;28;20042;-72
2022/09/06 13:27:49;;;;;;;7.38;3.63;;;;;;;;;;5011601;28;20073;-72
2022/09/06 13:30:29;;;;;;;6.78;3.20;;;;;;;;;;4978365;28;20041;-73
2022/09/06 13:32:55;;;;;;;7.95;3.85;;;;;;;;;;4976990;28;20050;-72
2022/09/06 13:35:22;;;;;;;6.30;3.42;;;;;;;;;;4994163;28;20054;-72
2022/09/06 13:37:48;;;;;;;5.85;3.60;;;;;;;;;;5007085;28;20624;-72
2022/09/06 13:40:33;;;;;;;6.65;3.33;;;;;;;;;;4989451;28;20088;-72
2022/09/06 13:43:00;;;;;;;6.68;3.50;;;;;;;;;;5009627;28;20080;-72
2022/09/06 13:45:32;;;;;;;6.97;3.47;;;;;;;;;;5000920;28;20084;-72
2022/09/06 13:47:59;;;;;;;8.65;3.53;;;;;;;;;;4993073;28;20069;-72
2022/09/06 13:50:26;;;;;;;7.40;3.33;;;;;;;;;;5013254;28;20042;-72
2022/09/06 13:52:52;;;;;;;6.28;3.80;;;;;;;;;;5013174;28;20042;-72
2022/09/06 13:55:20;;;;;;;6.53;3.20;;;;;;;;;;5012431;28;20054;-72
2022/09/06 13:57:46;;;;;;;7.95;3.42;;;;;;;;;;5013140;28;20112;-72
2022/09/06 14:00:12;;;;;;;7.18;3.10;;;;;;;;;;5011924;28;20053;-72
2022/09/06 14:02:41;;;;;;;6.80;3.50;;;;;;;;;;5010394;28;20052;-71
2022/09/06 14:05:08;;;;;;;6.32;3.00;;;;;;;;;;5002228;28;20495;-72
2022/09/06 14:07:35;;;;;;;5.72;3.00;;;;;;;;;;5014180;28;20100;-72
2022/09/06 14:10:01;;;;;;;5.43;3.00;;;;;;;;;;5012922;28;20423;-72
2022/09/06 14:12:27;;;;;;;7.88;3.05;;;;;;;;;;4994965;28;20053;-72
2022/09/06 14:14:53;;;;;;;8.70;3.10;;;;;;;;;;5012810;28;20053;-72
2022/09/06 14:17:19;;;;;;;6.28;3.15;;;;;;;;;;5010078;28;20096;-72
2022/09/06 14:19:46;;;;;;;6.70;3.67;;;;;;;;;;4987594;28;20396;-72
2022/09/06 14:22:12;;;;;;;6.78;3.25;;;;;;;;;;5001053;28;20041;-72
2022/09/06 14:24:38;;;;;;;6.57;3.28;;;;;;;;;;5011949;28;20046;-72
2022/09/06 14:27:05;;;;;;;5.45;3.42;;;;;;;;;;5020037;28;20115;-72
2022/09/06 14:29:33;;;;;;;7.43;3.33;;;;;;;;;;5014759;28;20058;-72
2022/09/06 14:31:59;;;;;;;6.32;3.47;;;;;;;;;;5013558;28;20077;-72
2022/09/06 14:34:26;;;;;;;5.70;3.05;;;;;;;;;;5008930;28;20042;-72
2022/09/06 14:36:52;;;;;;;10.77;3.25;;;;;;;;;;5009576;28;20049;-72
2022/09/06 14:39:18;;;;;;;5.78;2.95;;;;;;;;;;5009613;28;20060;-72
2022/09/06 14:41:44;;;;;;;6.05;3.10;;;;;;;;;;5010576;28;20071;-72
2022/09/06 14:44:10;;;;;;;8.10;3.35;;;;;;;;;;5010048;28;20034;-72